Terminal Aerodrome Forecast
Issued by NWS San Angelo, TX

Home | Current Version | Previous Version | Text Only | Print | Product List | Glossary On
Versions: 1 2 3 4 5 6 7 8 9 10 11 12 13 14 15
000
FTUS44 KSJT 261123
TAFABI
TAF
KABI 261123Z 2612/2712 18015G25KT P6SM VCSH SCT060 BKN120
     FM261500 20015G22KT P6SM SCT060 OVC250
     FM262300 17016G23KT P6SM VCTS SCT050CB
      TEMPO 2700/2704 4SM -TSRA BKN030CB
     FM270600 16011KT P6SM VCSH OVC050=

USA.gov is the U.S. government's official web portal to all federal, state and local government web resources and services.